SCRI weather

Río Frío Airport
Río Frío, Los Lagos Region, Chile

Public forecast

Using degrees Celsius for public forecast. Weather courtesy of forecast.io.

METAR (pilot weather report)

Closest report is San Carlos De Bariloche Airport, 50.5 nm (93.5 km) NE. Retrieved 2019/04/21 06:00 UTC (19 minutes ago):

SAZS 210600Z 16004KT CAVOK 03/M01 Q1019

TAF (pilot weather forecast)

Closest forecast is San Carlos De Bariloche Airport, 50.5 nm (93.5 km) NE. Retrieved 2019/04/21 06:00 UTC (19 minutes ago):

TAF SAZS 210500Z 2106/2206 VRB05KT CAVOK TX19/2118Z TN01/2109Z